CPX204 Details

Departure: Liège Airport (EBLG) at 1130 UTC
Arrival: Washington Dulles International Airport (KIAD) at 2000 UTC
Notes:


Current Weather Information
EBLG 230750Z 03005KT 350V050 CAVOK 11/10 Q1016 NOSIG
KIAD 230752Z 00000KT 10SM R01R/5500VP6000FT MIFG CLR 07/07 A2991 RMK AO2 SLP129 T00720067 $